Terminal Aerodrome Forecast
Issued by NWS

Home | Current Version | Previous Version | Text Only | Print | Product List | Glossary On
Versions: 1 2 3 4 5 6 7 8 9 10 11 12 13 14
000
FTUS44 KEPZ 222300
TAFLRU
TAF
KLRU 222327Z 2300/2324 11008KT P6SM VCTS SCT015 BKN040CB OVC100
      TEMPO 2301/2305 VRB15G30KT 2SM TSRA SCT010 OVC020CB
     FM230600 12010KT P6SM VCTS FEW020 BKN030CB BKN080
     FM231600 15008KT P6SM VCTS SCT030 SCT050CB SCT100=

USA.gov is the U.S. government's official web portal to all federal, state and local government web resources and services.